»·PEaware :: DAL422 KPDX-KSEA

DAL422 :: KPDX-KSEA

FLIGHT INFORMATION

Flight Status: Arrived
Operator:
Delta Air Lines
More flights by this operator :: More flights under this callsign
Pilot: Chris C. (20435)
Aircraft: BOEING 737-800
(B738)
More flights by this aircraft type
Origin: KPDX Portland Intl
United States
Destination: KSEA Seattle-Tacoma Intl
United States
More flights between these airports :: More routes between these airports
Route: COUGA KRIEG HAWKZ7
File this flight plan on PilotEdge
Remarks:
Altitude:
(Current/Filed)
22,000ft
Speed:
(Current/Filed)
400kts
Departed: 17-Sep-18 10:32 AM
Arrived: 17-Sep-18 11:05 AM
Distance/Time
Traveled:
112nm/0:33
Distance/Time
To Go:
Arrived

Flight Plot

Page will automatically refresh every two minutes.

Flight plan parsing failed; only flown route is shown


Map Options




Map Legend


Flown Route
Filed Route
Departure Airport
Arrival Airport
Navaid (VOR, NDB)
Fix

Horizontal Profiles

Position Reports

Time Latitude Longitude Heading Altitude Ground
Speed
17-Sep-18 10:19 45.592136 -122.596448 0 37ft 0kts
17-Sep-18 10:20 45.592136 -122.596448 196 37ft 0kts
17-Sep-18 10:21 45.592136 -122.596448 196 37ft 0kts
17-Sep-18 10:22 45.592136 -122.596448 196 37ft 0kts
17-Sep-18 10:23 45.592136 -122.596448 196 37ft 0kts
17-Sep-18 10:24 45.592211 -122.596415 196 37ft 2kts
17-Sep-18 10:25 45.592784 -122.596168 196 37ft 2kts
17-Sep-18 10:26 45.592929 -122.596105 196 37ft 0kts
17-Sep-18 10:27 45.592929 -122.596105 196 37ft 0kts
17-Sep-18 10:28 45.592929 -122.596105 196 37ft 0kts
17-Sep-18 10:29 45.592910 -122.596123 218 37ft 0kts
17-Sep-18 10:30 45.591397 -122.599471 262 37ft 19kts
17-Sep-18 10:31 45.587963 -122.599824 118 37ft 20kts
17-Sep-18 10:32 45.584740 -122.591548 118 37ft 26kts
17-Sep-18 10:33 45.581576 -122.583691 151 37ft 0kts
17-Sep-18 10:34 45.584497 -122.594112 298 37ft 128kts
17-Sep-18 10:35 45.609249 -122.659381 297 1995ft 241kts
17-Sep-18 10:36 45.645455 -122.745255 306 5935ft 264kts
17-Sep-18 10:37 45.690204 -122.830619 306 9620ft 280kts
17-Sep-18 10:38 45.743364 -122.881878 10 11821ft 311kts
17-Sep-18 10:39 45.824536 -122.837354 22 15129ft 327kts
17-Sep-18 10:40 45.909821 -122.786529 22 18275ft 344kts
17-Sep-18 10:41 45.983947 -122.742226 22 20785ft 353kts
17-Sep-18 10:42 46.091714 -122.676076 18 22181ft 381kts
17-Sep-18 10:43 46.158708 -122.669425 349 22188ft 361kts
17-Sep-18 10:44 46.249821 -122.709109 353 22184ft 359kts
17-Sep-18 10:45 46.360529 -122.724274 1 22189ft 357kts
17-Sep-18 10:46 46.442643 -122.720570 4 21498ft 355kts
17-Sep-18 10:47 46.539391 -122.711990 4 20001ft 348kts
17-Sep-18 10:48 46.633146 -122.702957 4 18523ft 342kts
17-Sep-18 10:49 46.727129 -122.693371 4 17571ft 341kts
17-Sep-18 10:50 46.819371 -122.683759 4 16001ft 328kts
17-Sep-18 10:51 46.909615 -122.674215 4 14368ft 324kts
17-Sep-18 10:52 46.998017 -122.664575 6 12557ft 315kts
17-Sep-18 10:53 47.076834 -122.618158 24 10768ft 304kts
17-Sep-18 10:54 47.147267 -122.569960 24 9996ft 298kts
17-Sep-18 10:55 47.215732 -122.522861 24 9999ft 298kts
17-Sep-18 10:56 47.295295 -122.500487 4 9426ft 298kts
17-Sep-18 10:57 47.377310 -122.490455 4 8439ft 294kts
17-Sep-18 10:58 47.454832 -122.480839 4 7179ft 286kts
17-Sep-18 10:59 47.533290 -122.470519 4 5883ft 281kts
17-Sep-18 11:00 47.608704 -122.460556 4 4409ft 260kts
17-Sep-18 11:01 47.672351 -122.437292 54 4018ft 231kts
17-Sep-18 11:02 47.658368 -122.354304 142 3998ft 237kts
17-Sep-18 11:03 47.606536 -122.305404 163 3948ft 228kts
17-Sep-18 11:04 47.552238 -122.308418 185 2979ft 177kts
17-Sep-18 11:05 47.510302 -122.310836 180 1734ft 153kts
17-Sep-18 11:06 47.467747 -122.310918 179 591ft 156kts
17-Sep-18 11:07 47.446373 -122.309075 145 441ft 24kts
17-Sep-18 11:08 47.443800 -122.306243 161 441ft 10kts
17-Sep-18 11:09 47.442414 -122.304360 135 441ft 0kts

Navigation Log

Ident Type
Flight plan parsing failed, navigation log unavailable